sensor_id;sensor_type;location;lat;lon;timestamp;P1;durP1;ratioP1;P2;durP2;ratioP2
31390;SDS011;18022;45.492;11.548;2022-12-26T00:01:34;39.45;;;28.75;;
31390;SDS011;18022;45.492;11.548;2022-12-26T00:04:00;43.60;;;28.75;;
31390;SDS011;18022;45.492;11.548;2022-12-26T00:06:28;39.65;;;29.15;;
31390;SDS011;18022;45.492;11.548;2022-12-26T00:08:54;32.92;;;26.30;;
31390;SDS011;18022;45.492;11.548;2022-12-26T00:11:20;38.00;;;27.95;;
31390;SDS011;18022;45.492;11.548;2022-12-26T00:13:47;38.20;;;27.70;;
31390;SDS011;18022;45.492;11.548;2022-12-26T00:16:16;39.00;;;27.67;;
31390;SDS011;18022;45.492;11.548;2022-12-26T00:18:43;37.25;;;28.08;;
31390;SDS011;18022;45.492;11.548;2022-12-26T00:21:10;36.53;;;26.65;;
31390;SDS011;18022;45.492;11.548;2022-12-26T00:23:37;36.50;;;26.88;;
31390;SDS011;18022;45.492;11.548;2022-12-26T00:26:03;29.98;;;24.48;;
31390;SDS011;18022;45.492;11.548;2022-12-26T00:28:30;34.23;;;26.63;;
31390;SDS011;18022;45.492;11.548;2022-12-26T00:30:56;41.10;;;28.88;;
31390;SDS011;18022;45.492;11.548;2022-12-26T00:33:22;40.25;;;29.95;;
31390;SDS011;18022;45.492;11.548;2022-12-26T00:35:48;37.00;;;27.48;;
31390;SDS011;18022;45.492;11.548;2022-12-26T00:38:14;34.13;;;25.92;;
31390;SDS011;18022;45.492;11.548;2022-12-26T00:40:40;36.08;;;26.45;;
31390;SDS011;18022;45.492;11.548;2022-12-26T00:43:10;32.67;;;25.17;;
31390;SDS011;18022;45.492;11.548;2022-12-26T00:45:36;37.60;;;26.83;;
31390;SDS011;18022;45.492;11.548;2022-12-26T00:48:02;32.28;;;25.63;;
31390;SDS011;18022;45.492;11.548;2022-12-26T00:50:28;32.08;;;25.83;;
31390;SDS011;18022;45.492;11.548;2022-12-26T00:52:54;32.38;;;24.17;;
31390;SDS011;18022;45.492;11.548;2022-12-26T00:55:21;33.60;;;24.80;;
31390;SDS011;18022;45.492;11.548;2022-12-26T00:57:47;34.63;;;24.20;;
31390;SDS011;18022;45.492;11.548;2022-12-26T01:00:13;32.50;;;24.15;;
31390;SDS011;18022;45.492;11.548;2022-12-26T01:02:39;31.48;;;24.42;;
31390;SDS011;18022;45.492;11.548;2022-12-26T01:05:06;32.75;;;24.23;;
31390;SDS011;18022;45.492;11.548;2022-12-26T01:07:33;35.63;;;26.55;;
31390;SDS011;18022;45.492;11.548;2022-12-26T01:10:00;34.50;;;27.05;;
31390;SDS011;18022;45.492;11.548;2022-12-26T01:12:26;35.55;;;27.08;;
31390;SDS011;18022;45.492;11.548;2022-12-26T01:14:55;33.00;;;26.13;;
31390;SDS011;18022;45.492;11.548;2022-12-26T01:17:21;32.38;;;24.65;;
31390;SDS011;18022;45.492;11.548;2022-12-26T01:19:47;35.38;;;25.63;;
31390;SDS011;18022;45.492;11.548;2022-12-26T01:22:13;33.35;;;24.00;;
31390;SDS011;18022;45.492;11.548;2022-12-26T01:24:40;35.00;;;25.13;;
31390;SDS011;18022;45.492;11.548;2022-12-26T01:27:06;30.73;;;24.15;;
31390;SDS011;18022;45.492;11.548;2022-12-26T01:29:32;32.65;;;24.92;;
31390;SDS011;18022;45.492;11.548;2022-12-26T01:31:58;30.55;;;23.98;;
31390;SDS011;18022;45.492;11.548;2022-12-26T01:34:24;37.75;;;25.80;;
31390;SDS011;18022;45.492;11.548;2022-12-26T01:36:51;31.45;;;23.85;;
31390;SDS011;18022;45.492;11.548;2022-12-26T01:39:17;35.40;;;25.70;;
31390;SDS011;18022;45.492;11.548;2022-12-26T01:41:43;32.30;;;24.88;;
31390;SDS011;18022;45.492;11.548;2022-12-26T01:46:54;31.48;;;24.48;;
31390;SDS011;18022;45.492;11.548;2022-12-26T01:49:29;34.70;;;25.63;;
31390;SDS011;18022;45.492;11.548;2022-12-26T01:51:57;33.95;;;25.42;;
31390;SDS011;18022;45.492;11.548;2022-12-26T01:54:24;35.08;;;26.00;;
31390;SDS011;18022;45.492;11.548;2022-12-26T01:56:52;39.55;;;26.83;;
31390;SDS011;18022;45.492;11.548;2022-12-26T01:59:20;32.22;;;26.00;;
31390;SDS011;18022;45.492;11.548;2022-12-26T02:01:47;38.13;;;27.85;;
31390;SDS011;18022;45.492;11.548;2022-12-26T02:04:16;35.35;;;26.90;;
31390;SDS011;18022;45.492;11.548;2022-12-26T02:07:02;36.40;;;26.92;;
31390;SDS011;18022;45.492;11.548;2022-12-26T02:09:29;36.95;;;27.67;;
31390;SDS011;18022;45.492;11.548;2022-12-26T02:11:57;34.40;;;26.90;;
31390;SDS011;18022;45.492;11.548;2022-12-26T02:14:26;34.03;;;27.35;;
31390;SDS011;18022;45.492;11.548;2022-12-26T02:16:52;33.08;;;27.05;;
31390;SDS011;18022;45.492;11.548;2022-12-26T02:24:44;35.08;;;25.80;;
31390;SDS011;18022;45.492;11.548;2022-12-26T02:30:05;38.50;;;28.35;;
31390;SDS011;18022;45.492;11.548;2022-12-26T02:43:10;37.08;;;27.58;;
31390;SDS011;18022;45.492;11.548;2022-12-26T02:48:33;33.28;;;26.20;;
31390;SDS011;18022;45.492;11.548;2022-12-26T02:57:03;35.33;;;25.73;;
31390;SDS011;18022;45.492;11.548;2022-12-26T03:02:50;33.10;;;25.00;;
31390;SDS011;18022;45.492;11.548;2022-12-26T03:05:38;35.70;;;26.30;;
31390;SDS011;18022;45.492;11.548;2022-12-26T03:08:26;33.60;;;26.30;;
31390;SDS011;18022;45.492;11.548;2022-12-26T03:11:12;34.67;;;26.02;;
31390;SDS011;18022;45.492;11.548;2022-12-26T03:14:01;34.55;;;26.17;;
31390;SDS011;18022;45.492;11.548;2022-12-26T03:16:29;35.90;;;26.85;;
31390;SDS011;18022;45.492;11.548;2022-12-26T03:19:14;35.22;;;26.75;;
31390;SDS011;18022;45.492;11.548;2022-12-26T03:21:42;36.17;;;26.70;;
31390;SDS011;18022;45.492;11.548;2022-12-26T03:24:09;35.38;;;27.52;;
31390;SDS011;18022;45.492;11.548;2022-12-26T03:26:37;33.50;;;26.35;;
31390;SDS011;18022;45.492;11.548;2022-12-26T03:29:04;41.35;;;27.80;;
31390;SDS011;18022;45.492;11.548;2022-12-26T03:31:49;35.60;;;27.45;;
31390;SDS011;18022;45.492;11.548;2022-12-26T03:34:15;34.90;;;27.65;;
31390;SDS011;18022;45.492;11.548;2022-12-26T03:50:05;40.50;;;27.20;;
31390;SDS011;18022;45.492;11.548;2022-12-26T03:53:12;40.10;;;28.73;;
31390;SDS011;18022;45.492;11.548;2022-12-26T03:56:10;41.13;;;30.63;;
31390;SDS011;18022;45.492;11.548;2022-12-26T03:59:08;34.80;;;26.65;;
31390;SDS011;18022;45.492;11.548;2022-12-26T04:01:54;35.47;;;26.83;;
31390;SDS011;18022;45.492;11.548;2022-12-26T04:04:40;29.38;;;24.50;;
31390;SDS011;18022;45.492;11.548;2022-12-26T04:07:27;32.33;;;26.47;;
31390;SDS011;18022;45.492;11.548;2022-12-26T04:10:15;34.13;;;25.40;;
31390;SDS011;18022;45.492;11.548;2022-12-26T04:15:57;34.25;;;25.83;;
31390;SDS011;18022;45.492;11.548;2022-12-26T04:21:29;38.78;;;27.27;;
31390;SDS011;18022;45.492;11.548;2022-12-26T04:24:18;38.65;;;28.42;;
31390;SDS011;18022;45.492;11.548;2022-12-26T04:27:04;36.75;;;29.13;;
31390;SDS011;18022;45.492;11.548;2022-12-26T04:29:50;37.78;;;27.27;;
31390;SDS011;18022;45.492;11.548;2022-12-26T04:32:43;34.50;;;25.48;;
31390;SDS011;18022;45.492;11.548;2022-12-26T04:35:46;32.63;;;24.52;;
31390;SDS011;18022;45.492;11.548;2022-12-26T04:38:34;30.98;;;25.02;;
31390;SDS011;18022;45.492;11.548;2022-12-26T04:41:21;37.33;;;25.35;;
31390;SDS011;18022;45.492;11.548;2022-12-26T04:44:06;32.03;;;24.95;;
31390;SDS011;18022;45.492;11.548;2022-12-26T04:46:39;32.30;;;24.98;;
31390;SDS011;18022;45.492;11.548;2022-12-26T04:49:06;30.13;;;24.83;;
31390;SDS011;18022;45.492;11.548;2022-12-26T04:51:52;32.85;;;24.95;;
31390;SDS011;18022;45.492;11.548;2022-12-26T04:54:19;33.95;;;23.88;;
31390;SDS011;18022;45.492;11.548;2022-12-26T04:56:45;32.40;;;24.38;;
31390;SDS011;18022;45.492;11.548;2022-12-26T04:59:11;31.08;;;24.75;;
31390;SDS011;18022;45.492;11.548;2022-12-26T05:01:37;32.30;;;24.85;;
31390;SDS011;18022;45.492;11.548;2022-12-26T05:04:22;31.73;;;24.20;;
31390;SDS011;18022;45.492;11.548;2022-12-26T05:07:10;30.33;;;23.92;;
31390;SDS011;18022;45.492;11.548;2022-12-26T05:09:56;27.88;;;22.92;;
31390;SDS011;18022;45.492;11.548;2022-12-26T05:12:22;28.45;;;22.67;;
31390;SDS011;18022;45.492;11.548;2022-12-26T05:14:48;27.77;;;23.15;;
31390;SDS011;18022;45.492;11.548;2022-12-26T05:17:14;29.10;;;22.70;;
31390;SDS011;18022;45.492;11.548;2022-12-26T05:19:57;28.35;;;23.13;;
31390;SDS011;18022;45.492;11.548;2022-12-26T05:22:42;29.75;;;24.05;;
31390;SDS011;18022;45.492;11.548;2022-12-26T05:25:28;31.58;;;23.63;;
31390;SDS011;18022;45.492;11.548;2022-12-26T05:28:14;29.85;;;23.67;;
31390;SDS011;18022;45.492;11.548;2022-12-26T05:30:59;33.13;;;24.60;;
31390;SDS011;18022;45.492;11.548;2022-12-26T05:33:26;30.95;;;23.60;;
31390;SDS011;18022;45.492;11.548;2022-12-26T05:36:11;31.60;;;24.50;;
31390;SDS011;18022;45.492;11.548;2022-12-26T05:38:37;33.28;;;25.65;;
31390;SDS011;18022;45.492;11.548;2022-12-26T05:41:03;34.75;;;25.52;;
31390;SDS011;18022;45.492;11.548;2022-12-26T05:43:29;31.52;;;24.73;;
31390;SDS011;18022;45.492;11.548;2022-12-26T05:45:55;30.42;;;24.17;;
31390;SDS011;18022;45.492;11.548;2022-12-26T05:48:22;37.85;;;26.40;;
31390;SDS011;18022;45.492;11.548;2022-12-26T05:50:48;29.73;;;24.73;;
31390;SDS011;18022;45.492;11.548;2022-12-26T05:53:14;34.42;;;24.77;;
31390;SDS011;18022;45.492;11.548;2022-12-26T05:55:40;32.50;;;25.15;;
31390;SDS011;18022;45.492;11.548;2022-12-26T05:58:06;32.78;;;25.02;;
31390;SDS011;18022;45.492;11.548;2022-12-26T06:00:32;32.13;;;25.40;;
31390;SDS011;18022;45.492;11.548;2022-12-26T06:02:58;31.60;;;24.63;;
31390;SDS011;18022;45.492;11.548;2022-12-26T06:05:26;32.83;;;25.20;;
31390;SDS011;18022;45.492;11.548;2022-12-26T06:07:52;31.63;;;24.52;;
31390;SDS011;18022;45.492;11.548;2022-12-26T06:10:18;29.67;;;24.20;;
31390;SDS011;18022;45.492;11.548;2022-12-26T06:12:44;30.95;;;24.48;;
31390;SDS011;18022;45.492;11.548;2022-12-26T06:15:10;33.20;;;25.08;;
31390;SDS011;18022;45.492;11.548;2022-12-26T06:17:37;31.75;;;24.95;;
31390;SDS011;18022;45.492;11.548;2022-12-26T06:20:03;34.97;;;24.55;;
31390;SDS011;18022;45.492;11.548;2022-12-26T06:22:29;31.88;;;24.92;;
31390;SDS011;18022;45.492;11.548;2022-12-26T06:24:55;31.38;;;25.73;;
31390;SDS011;18022;45.492;11.548;2022-12-26T06:27:22;32.17;;;23.63;;
31390;SDS011;18022;45.492;11.548;2022-12-26T06:29:48;31.77;;;24.55;;
31390;SDS011;18022;45.492;11.548;2022-12-26T06:32:14;32.95;;;24.80;;
31390;SDS011;18022;45.492;11.548;2022-12-26T06:34:40;30.35;;;24.63;;
31390;SDS011;18022;45.492;11.548;2022-12-26T06:37:06;26.67;;;22.98;;
31390;SDS011;18022;45.492;11.548;2022-12-26T06:39:32;32.10;;;24.67;;
31390;SDS011;18022;45.492;11.548;2022-12-26T06:41:58;29.60;;;23.70;;
31390;SDS011;18022;45.492;11.548;2022-12-26T06:44:24;28.83;;;23.15;;
31390;SDS011;18022;45.492;11.548;2022-12-26T06:46:50;30.42;;;24.35;;
31390;SDS011;18022;45.492;11.548;2022-12-26T06:49:16;29.63;;;23.83;;
31390;SDS011;18022;45.492;11.548;2022-12-26T06:51:42;31.85;;;24.55;;
31390;SDS011;18022;45.492;11.548;2022-12-26T06:54:09;26.13;;;21.88;;
31390;SDS011;18022;45.492;11.548;2022-12-26T06:56:35;28.60;;;21.80;;
31390;SDS011;18022;45.492;11.548;2022-12-26T06:59:02;27.77;;;22.38;;
31390;SDS011;18022;45.492;11.548;2022-12-26T07:01:29;30.08;;;22.77;;
31390;SDS011;18022;45.492;11.548;2022-12-26T07:03:56;30.87;;;23.67;;
31390;SDS011;18022;45.492;11.548;2022-12-26T07:06:26;29.20;;;23.42;;
31390;SDS011;18022;45.492;11.548;2022-12-26T07:08:53;31.85;;;24.17;;
31390;SDS011;18022;45.492;11.548;2022-12-26T07:11:21;29.90;;;23.63;;
31390;SDS011;18022;45.492;11.548;2022-12-26T07:13:47;31.50;;;24.30;;
31390;SDS011;18022;45.492;11.548;2022-12-26T07:16:13;31.23;;;24.90;;
31390;SDS011;18022;45.492;11.548;2022-12-26T07:18:40;34.33;;;25.45;;
31390;SDS011;18022;45.492;11.548;2022-12-26T07:21:06;33.00;;;24.60;;
31390;SDS011;18022;45.492;11.548;2022-12-26T07:23:32;30.88;;;24.50;;
31390;SDS011;18022;45.492;11.548;2022-12-26T07:25:59;34.35;;;24.25;;
31390;SDS011;18022;45.492;11.548;2022-12-26T07:28:25;28.83;;;24.10;;
31390;SDS011;18022;45.492;11.548;2022-12-26T07:30:51;33.35;;;24.35;;
31390;SDS011;18022;45.492;11.548;2022-12-26T07:33:17;34.83;;;24.65;;
31390;SDS011;18022;45.492;11.548;2022-12-26T07:35:43;32.13;;;24.73;;
31390;SDS011;18022;45.492;11.548;2022-12-26T07:38:10;32.90;;;26.17;;
31390;SDS011;18022;45.492;11.548;2022-12-26T07:40:36;32.72;;;24.40;;
31390;SDS011;18022;45.492;11.548;2022-12-26T07:43:02;35.58;;;26.65;;
31390;SDS011;18022;45.492;11.548;2022-12-26T07:45:28;29.92;;;24.55;;
31390;SDS011;18022;45.492;11.548;2022-12-26T07:47:55;35.22;;;24.85;;
31390;SDS011;18022;45.492;11.548;2022-12-26T07:50:25;32.00;;;25.67;;
31390;SDS011;18022;45.492;11.548;2022-12-26T07:52:51;32.20;;;25.40;;
31390;SDS011;18022;45.492;11.548;2022-12-26T07:55:17;33.20;;;26.63;;
31390;SDS011;18022;45.492;11.548;2022-12-26T07:57:44;36.65;;;28.63;;
31390;SDS011;18022;45.492;11.548;2022-12-26T08:00:14;32.03;;;26.73;;
31390;SDS011;18022;45.492;11.548;2022-12-26T08:02:40;34.75;;;25.77;;
31390;SDS011;18022;45.492;11.548;2022-12-26T08:05:06;31.00;;;23.90;;
31390;SDS011;18022;45.492;11.548;2022-12-26T08:07:32;33.58;;;24.75;;
31390;SDS011;18022;45.492;11.548;2022-12-26T08:09:58;32.60;;;24.50;;
31390;SDS011;18022;45.492;11.548;2022-12-26T08:12:24;28.23;;;23.73;;
31390;SDS011;18022;45.492;11.548;2022-12-26T08:14:51;31.00;;;24.40;;
31390;SDS011;18022;45.492;11.548;2022-12-26T08:17:17;28.85;;;23.25;;
31390;SDS011;18022;45.492;11.548;2022-12-26T08:19:43;26.15;;;21.00;;
31390;SDS011;18022;45.492;11.548;2022-12-26T08:22:09;27.58;;;22.00;;
31390;SDS011;18022;45.492;11.548;2022-12-26T08:24:35;29.38;;;23.92;;
31390;SDS011;18022;45.492;11.548;2022-12-26T08:27:02;30.92;;;23.92;;
31390;SDS011;18022;45.492;11.548;2022-12-26T08:29:28;30.17;;;24.38;;
31390;SDS011;18022;45.492;11.548;2022-12-26T08:31:54;30.77;;;24.15;;
31390;SDS011;18022;45.492;11.548;2022-12-26T08:34:20;32.95;;;25.40;;
31390;SDS011;18022;45.492;11.548;2022-12-26T08:36:49;31.27;;;25.05;;
31390;SDS011;18022;45.492;11.548;2022-12-26T08:39:15;35.83;;;26.33;;
31390;SDS011;18022;45.492;11.548;2022-12-26T08:41:41;33.55;;;24.25;;
31390;SDS011;18022;45.492;11.548;2022-12-26T08:44:08;33.03;;;24.27;;
31390;SDS011;18022;45.492;11.548;2022-12-26T08:46:37;33.67;;;24.17;;
31390;SDS011;18022;45.492;11.548;2022-12-26T08:49:03;32.45;;;24.83;;
31390;SDS011;18022;45.492;11.548;2022-12-26T08:51:29;32.63;;;24.35;;
31390;SDS011;18022;45.492;11.548;2022-12-26T08:53:55;30.75;;;23.80;;
31390;SDS011;18022;45.492;11.548;2022-12-26T08:56:22;31.58;;;23.65;;
31390;SDS011;18022;45.492;11.548;2022-12-26T08:58:49;32.05;;;23.92;;
31390;SDS011;18022;45.492;11.548;2022-12-26T09:01:16;29.20;;;23.63;;
31390;SDS011;18022;45.492;11.548;2022-12-26T09:03:42;29.75;;;22.10;;
31390;SDS011;18022;45.492;11.548;2022-12-26T09:06:09;30.83;;;24.17;;
31390;SDS011;18022;45.492;11.548;2022-12-26T09:08:36;28.17;;;22.97;;
31390;SDS011;18022;45.492;11.548;2022-12-26T09:13:29;32.13;;;24.88;;
31390;SDS011;18022;45.492;11.548;2022-12-26T09:15:58;32.33;;;23.77;;
31390;SDS011;18022;45.492;11.548;2022-12-26T09:18:27;29.60;;;22.00;;
31390;SDS011;18022;45.492;11.548;2022-12-26T09:20:57;26.70;;;21.20;;
31390;SDS011;18022;45.492;11.548;2022-12-26T09:23:24;31.23;;;21.75;;
31390;SDS011;18022;45.492;11.548;2022-12-26T09:25:50;28.60;;;22.17;;
31390;SDS011;18022;45.492;11.548;2022-12-26T09:28:16;32.13;;;22.92;;
31390;SDS011;18022;45.492;11.548;2022-12-26T09:30:42;29.30;;;23.05;;
31390;SDS011;18022;45.492;11.548;2022-12-26T09:33:09;33.17;;;23.58;;
31390;SDS011;18022;45.492;11.548;2022-12-26T09:35:38;39.05;;;27.02;;
31390;SDS011;18022;45.492;11.548;2022-12-26T09:38:04;32.03;;;25.88;;
31390;SDS011;18022;45.492;11.548;2022-12-26T09:40:32;37.83;;;28.58;;
31390;SDS011;18022;45.492;11.548;2022-12-26T09:43:15;40.92;;;28.10;;
31390;SDS011;18022;45.492;11.548;2022-12-26T09:48:30;34.25;;;25.20;;
31390;SDS011;18022;45.492;11.548;2022-12-26T09:50:57;33.53;;;24.95;;
31390;SDS011;18022;45.492;11.548;2022-12-26T09:56:01;35.75;;;25.13;;
31390;SDS011;18022;45.492;11.548;2022-12-26T09:58:38;38.90;;;27.33;;
31390;SDS011;18022;45.492;11.548;2022-12-26T10:01:08;38.90;;;30.00;;
31390;SDS011;18022;45.492;11.548;2022-12-26T10:08:53;45.40;;;32.38;;
31390;SDS011;18022;45.492;11.548;2022-12-26T10:16:53;50.10;;;36.80;;
31390;SDS011;18022;45.492;11.548;2022-12-26T10:21:48;59.08;;;42.20;;
31390;SDS011;18022;45.492;11.548;2022-12-26T10:24:19;57.53;;;42.85;;
31390;SDS011;18022;45.492;11.548;2022-12-26T10:26:47;59.92;;;44.05;;
31390;SDS011;18022;45.492;11.548;2022-12-26T10:29:17;63.40;;;42.63;;
31390;SDS011;18022;45.492;11.548;2022-12-26T10:31:45;52.53;;;39.15;;
31390;SDS011;18022;45.492;11.548;2022-12-26T10:36:56;55.08;;;40.55;;
31390;SDS011;18022;45.492;11.548;2022-12-26T10:39:25;51.13;;;36.88;;
31390;SDS011;18022;45.492;11.548;2022-12-26T10:41:54;46.55;;;31.90;;
31390;SDS011;18022;45.492;11.548;2022-12-26T10:44:21;46.95;;;35.33;;
31390;SDS011;18022;45.492;11.548;2022-12-26T10:49:25;49.40;;;35.75;;
31390;SDS011;18022;45.492;11.548;2022-12-26T10:51:53;54.53;;;35.65;;
31390;SDS011;18022;45.492;11.548;2022-12-26T10:54:20;44.72;;;34.70;;
31390;SDS011;18022;45.492;11.548;2022-12-26T10:56:50;49.08;;;36.08;;
31390;SDS011;18022;45.492;11.548;2022-12-26T10:59:17;46.20;;;35.30;;
31390;SDS011;18022;45.492;11.548;2022-12-26T11:01:44;45.60;;;35.50;;
31390;SDS011;18022;45.492;11.548;2022-12-26T11:04:23;45.70;;;35.40;;
31390;SDS011;18022;45.492;11.548;2022-12-26T11:06:50;52.70;;;37.65;;
31390;SDS011;18022;45.492;11.548;2022-12-26T11:12:01;47.35;;;35.38;;
31390;SDS011;18022;45.492;11.548;2022-12-26T11:14:46;48.95;;;36.38;;
31390;SDS011;18022;45.492;11.548;2022-12-26T11:17:13;48.60;;;36.08;;
31390;SDS011;18022;45.492;11.548;2022-12-26T11:19:49;46.80;;;33.38;;
31390;SDS011;18022;45.492;11.548;2022-12-26T11:22:33;44.50;;;33.10;;
31390;SDS011;18022;45.492;11.548;2022-12-26T11:27:35;43.67;;;32.80;;
31390;SDS011;18022;45.492;11.548;2022-12-26T11:32:43;43.53;;;32.42;;
31390;SDS011;18022;45.492;11.548;2022-12-26T11:37:43;59.75;;;39.67;;
31390;SDS011;18022;45.492;11.548;2022-12-26T11:40:20;41.20;;;31.90;;
31390;SDS011;18022;45.492;11.548;2022-12-26T11:42:49;46.92;;;33.67;;
31390;SDS011;18022;45.492;11.548;2022-12-26T11:45:19;43.78;;;33.17;;
31390;SDS011;18022;45.492;11.548;2022-12-26T11:47:45;43.42;;;32.45;;
31390;SDS011;18022;45.492;11.548;2022-12-26T11:50:12;65.63;;;45.67;;
31390;SDS011;18022;45.492;11.548;2022-12-26T11:55:31;44.72;;;31.50;;
31390;SDS011;18022;45.492;11.548;2022-12-26T12:00:37;41.92;;;31.88;;
31390;SDS011;18022;45.492;11.548;2022-12-26T12:03:13;43.05;;;32.55;;
31390;SDS011;18022;45.492;11.548;2022-12-26T12:10:53;38.80;;;28.08;;
31390;SDS011;18022;45.492;11.548;2022-12-26T12:16:16;38.85;;;29.25;;
31390;SDS011;18022;45.492;11.548;2022-12-26T12:27:08;37.72;;;28.15;;
31390;SDS011;18022;45.492;11.548;2022-12-26T12:32:10;43.88;;;31.77;;
31390;SDS011;18022;45.492;11.548;2022-12-26T12:34:48;42.37;;;31.17;;
31390;SDS011;18022;45.492;11.548;2022-12-26T12:40:12;43.10;;;32.80;;
31390;SDS011;18022;45.492;11.548;2022-12-26T12:58:43;40.58;;;29.10;;
31390;SDS011;18022;45.492;11.548;2022-12-26T13:01:14;41.08;;;30.25;;
31390;SDS011;18022;45.492;11.548;2022-12-26T13:06:38;44.80;;;31.15;;
31390;SDS011;18022;45.492;11.548;2022-12-26T13:11:36;50.88;;;36.22;;
31390;SDS011;18022;45.492;11.548;2022-12-26T13:16:38;56.85;;;39.80;;
31390;SDS011;18022;45.492;11.548;2022-12-26T13:19:12;51.70;;;36.67;;
31390;SDS011;18022;45.492;11.548;2022-12-26T13:21:41;49.72;;;35.28;;
31390;SDS011;18022;45.492;11.548;2022-12-26T13:24:30;54.63;;;39.22;;
31390;SDS011;18022;45.492;11.548;2022-12-26T13:29:33;46.88;;;34.13;;
31390;SDS011;18022;45.492;11.548;2022-12-26T13:32:00;48.17;;;32.83;;
31390;SDS011;18022;45.492;11.548;2022-12-26T13:34:28;45.13;;;32.55;;
31390;SDS011;18022;45.492;11.548;2022-12-26T13:36:55;49.58;;;34.33;;
31390;SDS011;18022;45.492;11.548;2022-12-26T13:41:48;48.03;;;34.05;;
31390;SDS011;18022;45.492;11.548;2022-12-26T13:44:34;45.85;;;32.72;;
31390;SDS011;18022;45.492;11.548;2022-12-26T13:47:00;43.13;;;31.48;;
31390;SDS011;18022;45.492;11.548;2022-12-26T13:59:41;50.45;;;35.65;;
31390;SDS011;18022;45.492;11.548;2022-12-26T14:07:29;50.75;;;35.42;;
31390;SDS011;18022;45.492;11.548;2022-12-26T14:10:00;47.20;;;34.38;;
31390;SDS011;18022;45.492;11.548;2022-12-26T14:30:28;45.90;;;34.53;;
31390;SDS011;18022;45.492;11.548;2022-12-26T14:35:32;50.40;;;36.20;;
31390;SDS011;18022;45.492;11.548;2022-12-26T14:41:00;63.63;;;42.63;;
31390;SDS011;18022;45.492;11.548;2022-12-26T14:43:34;98.75;;;41.35;;
31390;SDS011;18022;45.492;11.548;2022-12-26T14:46:01;78.20;;;38.83;;
31390;SDS011;18022;45.492;11.548;2022-12-26T14:50:54;55.38;;;38.80;;
31390;SDS011;18022;45.492;11.548;2022-12-26T14:53:40;56.08;;;37.97;;
31390;SDS011;18022;45.492;11.548;2022-12-26T15:24:19;51.60;;;37.45;;
31390;SDS011;18022;45.492;11.548;2022-12-26T15:39:46;49.58;;;34.53;;
31390;SDS011;18022;45.492;11.548;2022-12-26T15:47:36;51.20;;;35.85;;
31390;SDS011;18022;45.492;11.548;2022-12-26T15:58:10;45.28;;;32.75;;
31390;SDS011;18022;45.492;11.548;2022-12-26T16:00:48;51.90;;;33.08;;
31390;SDS011;18022;45.492;11.548;2022-12-26T16:03:29;46.78;;;32.50;;
31390;SDS011;18022;45.492;11.548;2022-12-26T16:11:29;44.72;;;32.45;;
31390;SDS011;18022;45.492;11.548;2022-12-26T16:14:00;50.33;;;34.67;;
31390;SDS011;18022;45.492;11.548;2022-12-26T16:16:28;47.15;;;34.20;;
31390;SDS011;18022;45.492;11.548;2022-12-26T16:18:54;48.33;;;35.50;;
31390;SDS011;18022;45.492;11.548;2022-12-26T16:21:21;52.15;;;37.00;;
31390;SDS011;18022;45.492;11.548;2022-12-26T16:24:06;51.95;;;36.70;;
31390;SDS011;18022;45.492;11.548;2022-12-26T16:26:35;54.83;;;37.72;;
31390;SDS011;18022;45.492;11.548;2022-12-26T16:29:04;48.80;;;35.20;;
31390;SDS011;18022;45.492;11.548;2022-12-26T16:31:30;48.15;;;35.05;;
31390;SDS011;18022;45.492;11.548;2022-12-26T16:33:57;46.53;;;34.53;;
31390;SDS011;18022;45.492;11.548;2022-12-26T16:36:24;47.40;;;35.90;;
31390;SDS011;18022;45.492;11.548;2022-12-26T16:38:51;49.40;;;35.83;;
31390;SDS011;18022;45.492;11.548;2022-12-26T16:41:19;50.67;;;36.17;;
31390;SDS011;18022;45.492;11.548;2022-12-26T16:43:46;53.13;;;38.17;;
31390;SDS011;18022;45.492;11.548;2022-12-26T16:46:12;49.72;;;35.13;;
31390;SDS011;18022;45.492;11.548;2022-12-26T16:48:39;41.92;;;31.05;;
31390;SDS011;18022;45.492;11.548;2022-12-26T16:51:09;49.50;;;36.03;;
31390;SDS011;18022;45.492;11.548;2022-12-26T16:53:52;48.75;;;34.70;;
31390;SDS011;18022;45.492;11.548;2022-12-26T16:58:48;50.15;;;35.28;;
31390;SDS011;18022;45.492;11.548;2022-12-26T17:01:17;50.78;;;35.53;;
31390;SDS011;18022;45.492;11.548;2022-12-26T17:04:45;47.33;;;34.38;;
31390;SDS011;18022;45.492;11.548;2022-12-26T17:07:02;49.75;;;35.15;;
31390;SDS011;18022;45.492;11.548;2022-12-26T17:09:27;54.03;;;36.05;;
31390;SDS011;18022;45.492;11.548;2022-12-26T17:12:06;52.50;;;36.05;;
31390;SDS011;18022;45.492;11.548;2022-12-26T17:14:34;51.65;;;33.88;;
31390;SDS011;18022;45.492;11.548;2022-12-26T17:19:30;47.85;;;34.63;;
31390;SDS011;18022;45.492;11.548;2022-12-26T17:24:49;48.03;;;34.78;;
31390;SDS011;18022;45.492;11.548;2022-12-26T17:29:45;46.05;;;34.72;;
31390;SDS011;18022;45.492;11.548;2022-12-26T17:32:13;48.97;;;35.25;;
31390;SDS011;18022;45.492;11.548;2022-12-26T17:34:40;48.05;;;35.25;;
31390;SDS011;18022;45.492;11.548;2022-12-26T17:37:09;50.03;;;35.60;;
31390;SDS011;18022;45.492;11.548;2022-12-26T17:39:41;46.53;;;33.83;;
31390;SDS011;18022;45.492;11.548;2022-12-26T17:42:07;47.83;;;33.85;;
31390;SDS011;18022;45.492;11.548;2022-12-26T17:47:10;46.47;;;33.85;;
31390;SDS011;18022;45.492;11.548;2022-12-26T17:49:40;47.40;;;35.75;;
31390;SDS011;18022;45.492;11.548;2022-12-26T17:52:07;47.60;;;34.60;;
31390;SDS011;18022;45.492;11.548;2022-12-26T17:54:34;55.97;;;35.90;;
31390;SDS011;18022;45.492;11.548;2022-12-26T17:57:00;51.47;;;35.72;;
31390;SDS011;18022;45.492;11.548;2022-12-26T17:59:26;57.47;;;38.55;;
31390;SDS011;18022;45.492;11.548;2022-12-26T18:01:52;60.55;;;40.70;;
31390;SDS011;18022;45.492;11.548;2022-12-26T18:04:18;57.90;;;41.13;;
31390;SDS011;18022;45.492;11.548;2022-12-26T18:06:44;53.03;;;36.67;;
31390;SDS011;18022;45.492;11.548;2022-12-26T18:09:23;52.28;;;38.38;;
31390;SDS011;18022;45.492;11.548;2022-12-26T18:11:49;52.53;;;36.60;;
31390;SDS011;18022;45.492;11.548;2022-12-26T18:14:16;49.38;;;36.28;;
31390;SDS011;18022;45.492;11.548;2022-12-26T18:16:42;47.72;;;34.85;;
31390;SDS011;18022;45.492;11.548;2022-12-26T18:19:10;45.45;;;33.28;;
31390;SDS011;18022;45.492;11.548;2022-12-26T18:21:38;50.83;;;34.92;;
31390;SDS011;18022;45.492;11.548;2022-12-26T18:24:04;42.28;;;32.17;;
31390;SDS011;18022;45.492;11.548;2022-12-26T18:26:30;47.53;;;32.20;;
31390;SDS011;18022;45.492;11.548;2022-12-26T18:28:56;42.63;;;30.65;;
31390;SDS011;18022;45.492;11.548;2022-12-26T18:31:23;46.55;;;33.10;;
31390;SDS011;18022;45.492;11.548;2022-12-26T18:33:50;41.60;;;30.38;;
31390;SDS011;18022;45.492;11.548;2022-12-26T18:36:17;41.42;;;30.60;;
31390;SDS011;18022;45.492;11.548;2022-12-26T18:38:44;42.58;;;31.45;;
31390;SDS011;18022;45.492;11.548;2022-12-26T18:41:14;45.20;;;33.10;;
31390;SDS011;18022;45.492;11.548;2022-12-26T18:43:40;44.92;;;32.97;;
31390;SDS011;18022;45.492;11.548;2022-12-26T18:46:20;48.03;;;35.25;;